バルセロナ の空港の天気 - METARとTAF

バルセロナ・エル・プラット国際空港 ( LEBL / BCN ) - スペイン バルセロナ
飛行場実況気象(Metar)
観測時間04/19 18:30 CEST (04/19 16:30 UTC)
風向・風速東北東 6m/s
視程10km以上
天気現象
なし
気温18℃
湿度68%
気圧1024hPa
METARLEBL 191630Z 07011KT CAVOK 18/12 Q1024 NOSIG
過去の天気等 Google飛行場航空写真 Wunderground天気予報

過去48時間のMETAR

飛行場予報(TAF)
発表時間: 4/19 13:00 CEST (4/19 11:00 UTC)
予報対象時間: 19日14時 CEST ~ 20日14時 CEST
風向・風速東 5m/s
視程10km以上
少しの雲 雲底高度 1,220m
19日20時 CEST ~ 19日22時 CEST に徐々に
風向・風速北北東 2m/s
19日22時 CEST ~ 19日24時 CEST に徐々に
風向・風速不定 2m/s
20日10時 CEST ~ 20日12時 CEST に徐々に
風向・風速東 4m/s
TAF LEBL 191100Z 1912/2012 09010KT 9999 FEW040 TX21/1912Z TN12/2006Z
BECMG 1918/1920 03004KT
BECMG 1920/1922 VRB04KT
BECMG 2008/2010 09007KT